Time;durP1;ratioP1;P1;durP2;ratioP2;P2;SDS_P1;SDS_P2;PMS_P1;PMS_P2;Temp;Humidity;BMP_temperature;BMP_pressure;BME280_temperature;BME280_humidity;BME280_pressure;Samples;Min_cycle;Max_cycle;Signal;HPM_P1;HPM_P2
2022/03/26 00:03:10;;;;;;;3.60;3.17;;;22.80;51.70;;;;;;5008676;28;20172;-90
2022/03/26 00:05:36;;;;;;;3.57;3.27;;;22.80;51.70;;;;;;5008618;28;20869;-90
2022/03/26 00:08:02;;;;;;;3.63;3.33;;;22.80;51.80;;;;;;5007876;28;20176;-91
2022/03/26 00:10:27;;;;;;;3.33;3.03;;;22.80;51.80;;;;;;5007663;28;20181;-90
2022/03/26 00:12:53;;;;;;;3.60;2.63;;;22.80;51.70;;;;;;5007370;28;20423;-90
2022/03/26 00:15:20;;;;;;;3.97;3.63;;;22.80;51.70;;;;;;5007321;28;20200;-89
2022/03/26 00:17:45;;;;;;;3.30;3.00;;;22.80;51.70;;;;;;5007201;28;20177;-90
2022/03/26 00:20:11;;;;;;;3.17;2.87;;;22.80;51.70;;;;;;5008753;28;20419;-90
2022/03/26 00:22:37;;;;;;;3.80;3.30;;;22.80;51.70;;;;;;5007061;28;20185;-90
2022/03/26 00:25:04;;;;;;;3.77;2.90;;;22.80;51.70;;;;;;5008013;28;20412;-90
2022/03/26 00:27:30;;;;;;;3.57;2.70;;;22.80;51.70;;;;;;5006884;28;20483;-90
2022/03/26 00:29:56;;;;;;;3.80;3.50;;;22.80;51.80;;;;;;5006685;28;20431;-90
2022/03/26 00:32:22;;;;;;;2.90;2.50;;;22.80;51.70;;;;;;5007560;28;20448;-90
2022/03/26 00:34:48;;;;;;;3.80;3.40;;;22.80;51.70;;;;;;5007787;28;20451;-91
2022/03/26 00:37:15;;;;;;;3.43;3.13;;;22.70;51.70;;;;;;5007326;28;20165;-90
2022/03/26 00:39:42;;;;;;;2.70;2.50;;;22.80;51.80;;;;;;5007385;28;20437;-89
2022/03/26 00:42:15;;;;;;;3.30;2.70;;;22.80;51.70;;;;;;5009573;28;20476;-89
2022/03/26 00:44:41;;;;;;;3.10;2.80;;;22.80;51.70;;;;;;5008586;28;20396;-89
2022/03/26 00:47:08;;;;;;;3.50;3.03;;;22.80;51.80;;;;;;5007936;28;20432;-90
2022/03/26 00:49:34;;;;;;;3.43;2.77;;;22.70;51.70;;;;;;5008397;28;20420;-89
2022/03/26 00:52:00;;;;;;;3.27;2.80;;;22.70;51.70;;;;;;5006840;28;20447;-89
2022/03/26 00:54:25;;;;;;;3.13;2.87;;;22.70;51.70;;;;;;5024091;28;20451;-91
2022/03/26 00:56:51;;;;;;;3.10;2.80;;;22.70;51.70;;;;;;5009463;28;20193;-90
2022/03/26 00:59:17;;;;;;;3.23;2.93;;;22.70;51.70;;;;;;5006434;28;20608;-90
2022/03/26 01:01:43;;;;;;;3.60;2.87;;;22.70;51.70;;;;;;5021970;28;20179;-90
2022/03/26 01:04:09;;;;;;;3.67;3.17;;;22.70;51.70;;;;;;5007848;28;20173;-90
2022/03/26 01:06:35;;;;;;;3.10;2.73;;;22.70;51.70;;;;;;5022437;28;20420;-90
2022/03/26 01:09:02;;;;;;;3.50;3.00;;;22.70;51.70;;;;;;5006897;28;20476;-90
2022/03/26 01:11:30;;;;;;;3.33;3.03;;;22.70;51.70;;;;;;5022254;28;20412;-91
2022/03/26 01:13:56;;;;;;;3.10;2.80;;;22.70;51.70;;;;;;5023262;28;20531;-90
2022/03/26 01:16:26;;;;;;;3.37;3.07;;;22.70;51.70;;;;;;5022253;28;20435;-90
2022/03/26 01:18:55;;;;;;;2.97;2.63;;;22.70;51.70;;;;;;5005878;28;20180;-91
2022/03/26 01:21:24;;;;;;;4.40;4.00;;;22.70;52.20;;;;;;5005668;28;20480;-90
2022/03/26 01:23:50;;;;;;;3.20;2.90;;;22.70;51.70;;;;;;5007144;28;20407;-90
2022/03/26 01:29:40;;;;;;;3.07;2.77;;;22.70;51.70;;;;;;5006862;28;20248;-91
2022/03/26 01:32:11;;;;;;;3.70;2.87;;;22.70;51.70;;;;;;5021801;28;20424;-91
2022/03/26 01:34:37;;;;;;;3.33;2.97;;;22.70;51.80;;;;;;5006769;28;20523;-90
2022/03/26 01:37:04;;;;;;;2.33;2.13;;;22.70;51.80;;;;;;5006821;28;20441;-91
2022/03/26 01:39:30;;;;;;;3.17;2.90;;;22.70;51.80;;;;;;5007959;28;20436;-90
2022/03/26 01:42:04;;;;;;;2.60;2.40;;;22.70;51.80;;;;;;5007769;28;20431;-91
2022/03/26 01:44:30;;;;;;;3.30;3.00;;;22.70;51.80;;;;;;5005585;28;20484;-90
2022/03/26 01:46:56;;;;;;;3.23;2.93;;;22.70;51.80;;;;;;5007254;28;20424;-90
2022/03/26 01:49:22;;;;;;;2.77;2.47;;;22.70;51.80;;;;;;5006337;28;20418;-90
2022/03/26 01:51:48;;;;;;;3.00;2.70;;;22.70;51.80;;;;;;5021614;28;20468;-90
2022/03/26 01:54:16;;;;;;;3.10;2.80;;;22.70;51.80;;;;;;5023900;28;20200;-91
2022/03/26 01:56:43;;;;;;;3.00;2.27;;;22.70;51.70;;;;;;5007906;28;20431;-90
2022/03/26 01:59:11;;;;;;;3.17;2.87;;;22.70;51.70;;;;;;5006431;28;20412;-91
2022/03/26 02:01:37;;;;;;;2.90;2.53;;;22.70;52.30;;;;;;5005519;28;20507;-91
2022/03/26 02:04:05;;;;;;;3.50;2.80;;;22.70;51.80;;;;;;5006123;28;20771;-91
2022/03/26 02:06:32;;;;;;;3.10;2.80;;;22.70;51.70;;;;;;5005418;28;20424;-90
2022/03/26 02:09:01;;;;;;;2.90;2.60;;;22.70;51.80;;;;;;5005815;28;20430;-90
2022/03/26 02:11:34;;;;;;;2.93;2.67;;;22.70;51.80;;;;;;5004743;28;20448;-90
2022/03/26 02:14:02;;;;;;;3.63;2.73;;;22.70;51.80;;;;;;5005615;28;20436;-90
2022/03/26 02:16:30;;;;;;;2.90;2.70;;;22.70;51.80;;;;;;5005145;28;20423;-90
2022/03/26 02:18:56;;;;;;;2.90;2.70;;;22.70;51.80;;;;;;5006356;28;20419;-90
2022/03/26 02:21:22;;;;;;;2.50;2.30;;;22.70;51.70;;;;;;5005481;28;20479;-90
2022/03/26 02:23:48;;;;;;;2.73;2.40;;;22.70;51.80;;;;;;5005886;28;20428;-91
2022/03/26 02:26:22;;;;;;;2.70;2.50;;;22.70;51.70;;;;;;5005379;28;20427;-90
2022/03/26 02:28:49;;;;;;;2.97;2.67;;;22.70;51.70;;;;;;5006764;28;20392;-90
2022/03/26 02:31:16;;;;;;;2.57;2.20;;;22.70;51.70;;;;;;5004674;28;20815;-90
2022/03/26 02:33:42;;;;;;;2.80;2.60;;;22.70;51.70;;;;;;5004810;28;20460;-90
2022/03/26 02:36:09;;;;;;;2.47;2.27;;;22.70;51.70;;;;;;5005143;28;20423;-90
2022/03/26 02:38:39;;;;;;;3.37;3.07;;;22.70;51.70;;;;;;5008029;28;20417;-90
2022/03/26 02:41:06;;;;;;;2.77;2.43;;;22.70;51.70;;;;;;5009631;28;20428;-90
2022/03/26 02:43:32;;;;;;;2.67;2.37;;;22.70;51.70;;;;;;5008439;28;20424;-91
2022/03/26 02:49:20;;;;;;;3.07;2.77;;;22.70;51.70;;;;;;5010609;28;21048;-90
2022/03/26 02:51:45;;;;;;;2.87;2.63;;;22.70;51.80;;;;;;5026689;28;20424;-90
2022/03/26 02:54:18;;;;;;;3.00;2.70;;;22.70;51.80;;;;;;5027626;28;20197;-90
2022/03/26 03:00:18;;;;;;;2.80;2.47;;;22.70;51.80;;;;;;4968990;28;20422;-90
2022/03/26 03:02:45;;;;;;;2.30;2.10;;;22.70;51.80;;;;;;4952587;29;20425;-90
2022/03/26 03:05:11;;;;;;;3.37;2.90;;;22.70;51.80;;;;;;4953040;29;20183;-89
2022/03/26 03:07:36;;;;;;;3.20;2.53;;;22.70;51.80;;;;;;4968992;29;20430;-90
2022/03/26 03:10:04;;;;;;;3.00;2.53;;;22.70;51.80;;;;;;4968653;29;20163;-89
2022/03/26 03:12:33;;;;;;;2.57;2.37;;;22.70;51.80;;;;;;4952361;29;20414;-89
2022/03/26 03:14:59;;;;;;;3.43;2.80;;;22.70;51.80;;;;;;4968329;29;20454;-89
2022/03/26 03:17:25;;;;;;;2.70;2.50;;;22.60;51.70;;;;;;4969015;29;20422;-89
2022/03/26 03:19:50;;;;;;;3.13;2.60;;;22.70;51.80;;;;;;4968692;29;20425;-90
2022/03/26 03:22:16;;;;;;;2.83;2.63;;;22.70;51.80;;;;;;4968469;29;20197;-89
2022/03/26 03:24:42;;;;;;;2.30;2.10;;;22.70;51.80;;;;;;4968890;29;20179;-89
2022/03/26 03:27:08;;;;;;;2.97;2.40;;;22.70;51.80;;;;;;4956311;28;20220;-90
2022/03/26 03:29:34;;;;;;;2.50;2.30;;;22.70;51.80;;;;;;4990102;28;20940;-90
2022/03/26 03:32:03;;;;;;;3.10;2.47;;;22.70;51.80;;;;;;4989091;28;20177;-90
2022/03/26 03:34:29;;;;;;;2.40;2.20;;;22.70;51.80;;;;;;4988298;28;20205;-89
2022/03/26 03:36:55;;;;;;;2.57;2.30;;;22.60;51.80;;;;;;4991484;28;20420;-89
2022/03/26 03:39:23;;;;;;;3.67;2.60;;;22.60;51.80;;;;;;4990767;28;20545;-89
2022/03/26 03:41:49;;;;;;;2.63;2.43;;;22.70;51.80;;;;;;5005422;28;20207;-91
2022/03/26 03:44:14;;;;;;;2.73;2.53;;;22.60;51.80;;;;;;4990672;28;20462;-90
2022/03/26 03:46:40;;;;;;;2.83;2.57;;;22.60;51.80;;;;;;4990427;28;20428;-91
2022/03/26 03:49:06;;;;;;;2.73;2.40;;;22.60;51.80;;;;;;4988705;28;20190;-91
2022/03/26 03:51:32;;;;;;;4.10;2.67;;;22.60;51.80;;;;;;4989404;28;20254;-91
2022/03/26 03:53:57;;;;;;;2.20;2.10;;;22.60;51.80;;;;;;5008288;28;20208;-90
2022/03/26 03:56:23;;;;;;;2.80;2.53;;;22.60;52.40;;;;;;5007436;28;20184;-91
2022/03/26 03:58:50;;;;;;;2.90;2.70;;;22.60;51.80;;;;;;5006680;28;20203;-90
2022/03/26 04:01:16;;;;;;;2.90;2.63;;;22.60;51.80;;;;;;5007943;28;20658;-90
2022/03/26 04:03:42;;;;;;;2.40;2.20;;;22.60;51.80;;;;;;5007356;28;20432;-91
2022/03/26 04:06:07;;;;;;;2.50;2.27;;;22.60;51.80;;;;;;5023442;28;20195;-90
2022/03/26 04:08:33;;;;;;;2.60;2.20;;;22.60;51.80;;;;;;5008631;28;20227;-90
2022/03/26 04:10:59;;;;;;;2.73;2.53;;;22.60;51.80;;;;;;5023185;28;20651;-90
2022/03/26 04:13:24;;;;;;;3.23;2.67;;;22.60;51.80;;;;;;5008572;28;20207;-90
2022/03/26 04:15:53;;;;;;;2.20;2.00;;;22.60;51.80;;;;;;5008478;28;20259;-91
2022/03/26 04:18:19;;;;;;;2.43;2.03;;;22.60;51.80;;;;;;5008146;28;20173;-89
2022/03/26 04:20:46;;;;;;;2.40;2.20;;;22.60;51.80;;;;;;5008129;28;20432;-90
2022/03/26 04:23:12;;;;;;;2.43;2.20;;;22.60;51.80;;;;;;5006287;28;20442;-90
2022/03/26 04:25:38;;;;;;;2.33;2.13;;;22.60;51.80;;;;;;5008683;28;20411;-89
2022/03/26 04:28:04;;;;;;;2.50;1.90;;;22.60;51.80;;;;;;5007204;28;20415;-89
2022/03/26 04:30:30;;;;;;;2.60;2.40;;;22.60;51.80;;;;;;5006564;28;20440;-90
2022/03/26 04:32:56;;;;;;;3.07;2.60;;;22.60;51.80;;;;;;5006179;28;20494;-89
2022/03/26 04:35:22;;;;;;;2.60;2.40;;;22.60;51.80;;;;;;5007531;28;20201;-90
2022/03/26 04:37:48;;;;;;;3.60;2.83;;;22.60;51.80;;;;;;5008005;28;20199;-89
2022/03/26 04:40:16;;;;;;;2.47;2.27;;;22.60;51.80;;;;;;5007684;28;20432;-90
2022/03/26 04:42:42;;;;;;;2.50;2.20;;;22.60;51.80;;;;;;5010536;28;20173;-89
2022/03/26 04:45:09;;;;;;;3.20;2.40;;;22.60;51.80;;;;;;5009587;28;20417;-89
2022/03/26 04:47:35;;;;;;;3.03;2.73;;;22.60;51.80;;;;;;5006976;28;20420;-89
2022/03/26 04:53:24;;;;;;;2.30;2.10;;;22.60;51.80;;;;;;5008035;28;20447;-90
2022/03/26 04:55:49;;;;;;;2.47;2.27;;;22.50;51.80;;;;;;5008158;28;20432;-89
2022/03/26 04:58:15;;;;;;;3.07;2.63;;;22.50;51.80;;;;;;5007722;28;20161;-89
2022/03/26 05:00:41;;;;;;;2.60;2.40;;;22.50;51.80;;;;;;5006548;28;20200;-89
2022/03/26 05:03:08;;;;;;;2.40;2.20;;;22.50;51.80;;;;;;5006133;28;20176;-89
2022/03/26 05:05:34;;;;;;;2.40;2.17;;;22.50;51.80;;;;;;5007786;28;20412;-89
2022/03/26 05:07:59;;;;;;;2.67;2.47;;;22.50;51.80;;;;;;5005822;28;20420;-89
2022/03/26 05:10:28;;;;;;;2.40;2.20;;;22.50;51.80;;;;;;5006989;28;20204;-89
2022/03/26 05:12:57;;;;;;;2.70;2.50;;;22.50;51.80;;;;;;5005924;28;20180;-90
2022/03/26 05:15:29;;;;;;;1.90;1.80;;;22.50;51.80;;;;;;5007692;28;20459;-89
2022/03/26 05:17:58;;;;;;;2.53;2.33;;;22.50;51.80;;;;;;5007113;28;20415;-89
2022/03/26 05:20:25;;;;;;;2.47;2.27;;;22.50;51.80;;;;;;5005965;28;20415;-89
2022/03/26 05:22:52;;;;;;;2.77;2.40;;;22.50;51.80;;;;;;5004999;28;20416;-88
2022/03/26 05:25:18;;;;;;;2.33;2.10;;;22.50;51.80;;;;;;5005464;28;21076;-90
2022/03/26 05:27:50;;;;;;;2.50;2.30;;;22.50;51.80;;;;;;5005856;28;20428;-91
2022/03/26 05:30:17;;;;;;;2.80;2.60;;;22.50;51.80;;;;;;5006733;28;20435;-91
2022/03/26 05:32:43;;;;;;;2.40;2.20;;;22.50;51.80;;;;;;5008014;28;20451;-90
2022/03/26 05:35:13;;;;;;;2.47;2.27;;;22.50;51.80;;;;;;5010913;28;20452;-90
2022/03/26 05:37:46;;;;;;;2.70;2.50;;;22.50;51.80;;;;;;5008932;28;20887;-90
2022/03/26 05:43:27;;;;;;;2.70;2.50;;;22.50;51.80;;;;;;4975139;28;20483;-90
2022/03/26 05:45:56;;;;;;;3.07;2.77;;;22.50;51.80;;;;;;5006973;28;20495;-90
2022/03/26 05:48:22;;;;;;;2.10;1.90;;;22.60;51.90;;;;;;5008753;28;20443;-90
2022/03/26 05:50:48;;;;;;;2.80;2.50;;;22.50;51.80;;;;;;5008339;28;20443;-90
2022/03/26 05:53:14;;;;;;;2.77;2.20;;;22.60;51.90;;;;;;5005530;28;20169;-89
2022/03/26 05:55:39;;;;;;;2.30;2.03;;;22.60;51.90;;;;;;5004929;28;20181;-91
2022/03/26 05:58:05;;;;;;;3.17;2.87;;;22.60;51.90;;;;;;5007165;28;20476;-90
2022/03/26 06:00:31;;;;;;;2.80;2.47;;;22.60;51.90;;;;;;5006402;28;20176;-91
2022/03/26 06:02:56;;;;;;;2.73;2.53;;;22.60;51.80;;;;;;5005518;28;20181;-90
2022/03/26 06:05:22;;;;;;;2.53;2.20;;;22.60;51.80;;;;;;5005825;28;20541;-90
2022/03/26 06:07:50;;;;;;;3.17;2.63;;;22.60;51.80;;;;;;5005731;28;20173;-89
2022/03/26 06:10:16;;;;;;;2.47;2.27;;;22.60;51.80;;;;;;5007094;28;20176;-89
2022/03/26 06:12:42;;;;;;;2.10;1.90;;;22.60;51.80;;;;;;5006569;28;20771;-91
2022/03/26 06:18:31;;;;;;;2.40;2.20;;;22.60;51.80;;;;;;5010341;28;20292;-89
2022/03/26 06:20:57;;;;;;;2.50;2.30;;;22.60;51.80;;;;;;5010482;28;20915;-91
2022/03/26 06:23:22;;;;;;;2.60;2.40;;;22.60;51.80;;;;;;5009981;28;20436;-90
2022/03/26 06:25:49;;;;;;;2.60;2.30;;;22.60;51.80;;;;;;5009245;28;20205;-89
2022/03/26 06:28:19;;;;;;;2.27;2.07;;;22.60;51.80;;;;;;5009248;28;20431;-90
2022/03/26 06:30:46;;;;;;;2.63;2.43;;;22.70;51.90;;;;;;5009950;28;20448;-90
2022/03/26 06:33:15;;;;;;;2.83;2.63;;;22.70;51.80;;;;;;5012390;28;20447;-90
2022/03/26 06:35:45;;;;;;;2.40;2.20;;;22.70;51.90;;;;;;5010877;28;20495;-89
2022/03/26 06:38:11;;;;;;;2.20;2.00;;;22.70;51.80;;;;;;5010795;28;20432;-89
2022/03/26 06:40:40;;;;;;;2.47;2.27;;;22.70;51.80;;;;;;5013571;28;20435;-89
2022/03/26 06:43:07;;;;;;;2.10;1.90;;;22.70;51.80;;;;;;5011051;28;20487;-90
2022/03/26 06:45:33;;;;;;;2.33;2.13;;;22.70;51.80;;;;;;5010844;28;20420;-90
2022/03/26 06:47:59;;;;;;;2.50;2.30;;;22.70;51.80;;;;;;5013825;28;20407;-89
2022/03/26 06:53:48;;;;;;;2.23;2.00;;;22.70;51.80;;;;;;5010530;28;20447;-89
2022/03/26 06:56:16;;;;;;;2.50;2.30;;;22.70;51.80;;;;;;5009861;28;20419;-90
2022/03/26 06:58:42;;;;;;;3.27;2.00;;;22.70;51.80;;;;;;4992965;28;20451;-88
2022/03/26 07:01:07;;;;;;;2.30;2.10;;;22.70;51.80;;;;;;5008709;28;20432;-88
2022/03/26 07:03:33;;;;;;;3.03;2.73;;;22.70;51.80;;;;;;5010516;28;20161;-89
2022/03/26 07:06:00;;;;;;;2.20;1.80;;;22.70;51.80;;;;;;5009939;28;20200;-89
2022/03/26 07:08:28;;;;;;;2.23;2.03;;;22.70;51.80;;;;;;5009347;28;20181;-88
2022/03/26 07:10:54;;;;;;;2.10;1.90;;;22.70;51.80;;;;;;5009909;28;20428;-89
2022/03/26 07:13:20;;;;;;;2.50;2.30;;;22.70;51.80;;;;;;5009367;28;20935;-89
2022/03/26 07:15:45;;;;;;;2.27;2.07;;;22.70;52.40;;;;;;5011031;28;20208;-89
2022/03/26 07:21:31;;;;;;;2.10;1.90;;;22.70;51.80;;;;;;4992413;28;20188;-89
2022/03/26 07:23:57;;;;;;;2.37;2.17;;;22.70;51.80;;;;;;5009341;28;20448;-88
2022/03/26 07:26:27;;;;;;;2.97;2.77;;;22.70;51.80;;;;;;5009606;28;20416;-89
2022/03/26 07:28:55;;;;;;;2.27;1.90;;;22.70;51.80;;;;;;5010908;28;20736;-88
2022/03/26 07:31:27;;;;;;;2.53;2.20;;;22.70;51.80;;;;;;5012490;28;20431;-89
2022/03/26 07:33:52;;;;;;;2.50;2.30;;;22.70;51.80;;;;;;4994168;28;20966;-90
2022/03/26 07:36:18;;;;;;;3.40;2.53;;;22.70;51.80;;;;;;5009523;28;20419;-91
2022/03/26 07:38:44;;;;;;;2.53;2.33;;;22.70;51.80;;;;;;5010823;28;20177;-90
2022/03/26 07:41:10;;;;;;;2.63;2.40;;;22.80;51.80;;;;;;5008461;28;20177;-91
2022/03/26 07:43:36;;;;;;;2.83;2.60;;;22.80;51.80;;;;;;5010271;28;20428;-90
2022/03/26 07:46:02;;;;;;;3.00;2.70;;;22.80;51.80;;;;;;5012046;28;20516;-90
2022/03/26 07:48:27;;;;;;;2.93;2.40;;;22.80;51.80;;;;;;5009280;28;20212;-89
2022/03/26 07:50:53;;;;;;;2.93;2.63;;;22.80;51.80;;;;;;5009733;28;20416;-90
2022/03/26 07:53:22;;;;;;;4.27;2.87;;;22.80;51.80;;;;;;5010360;28;20269;-91
2022/03/26 07:55:49;;;;;;;2.50;2.30;;;22.70;51.70;;;;;;5024198;28;20428;-88
2022/03/26 07:58:15;;;;;;;3.17;2.47;;;22.80;51.80;;;;;;5023849;28;20495;-88
2022/03/26 08:00:41;;;;;;;2.77;2.47;;;22.80;51.70;;;;;;5023905;28;20173;-88
2022/03/26 08:03:10;;;;;;;3.20;2.90;;;22.80;51.70;;;;;;5008047;28;20172;-88
2022/03/26 08:05:36;;;;;;;3.33;2.90;;;22.70;51.70;;;;;;5009103;28;20470;-88
2022/03/26 08:11:25;;;;;;;3.33;2.80;;;22.80;51.70;;;;;;5008226;28;20164;-88
2022/03/26 08:17:06;;;;;;;3.40;3.10;;;22.70;51.60;;;;;;4990240;28;20585;-87
2022/03/26 08:19:34;;;;;;;4.10;3.20;;;22.70;51.60;;;;;;5007306;28;20416;-88
2022/03/26 08:22:01;;;;;;;5.53;3.37;;;22.70;51.60;;;;;;5006698;28;20431;-88
2022/03/26 08:24:26;;;;;;;3.53;2.90;;;22.70;51.60;;;;;;5006271;28;20421;-88
2022/03/26 08:26:53;;;;;;;5.37;3.53;;;22.70;51.60;;;;;;5008192;28;20410;-87
2022/03/26 08:29:19;;;;;;;4.20;3.80;;;22.70;51.60;;;;;;5027186;28;20547;-88
2022/03/26 08:31:44;;;;;;;4.10;3.70;;;22.70;51.60;;;;;;5010254;28;20393;-88
2022/03/26 08:34:10;;;;;;;4.97;3.80;;;22.70;51.70;;;;;;5007655;28;20475;-89
2022/03/26 08:36:37;;;;;;;4.27;3.87;;;22.70;51.70;;;;;;5010012;28;20185;-89
2022/03/26 08:39:04;;;;;;;3.70;3.40;;;22.70;51.70;;;;;;5009347;28;20200;-89
2022/03/26 08:44:52;;;;;;;4.07;3.63;;;22.70;51.70;;;;;;5011184;28;20486;-89
2022/03/26 08:47:18;;;;;;;4.47;4.07;;;22.70;51.70;;;;;;5006586;28;20412;-89
2022/03/26 08:49:45;;;;;;;6.03;3.50;;;22.70;51.70;;;;;;5006898;28;20289;-90
2022/03/26 08:52:11;;;;;;;4.40;4.00;;;22.70;51.70;;;;;;5021980;28;20228;-89
2022/03/26 08:54:37;;;;;;;3.80;3.17;;;22.70;51.70;;;;;;5005716;28;20452;-90
2022/03/26 08:57:04;;;;;;;3.90;3.50;;;22.70;51.70;;;;;;5006871;28;20408;-90
2022/03/26 08:59:29;;;;;;;4.03;3.63;;;22.70;51.70;;;;;;5005316;28;20175;-90
2022/03/26 09:01:55;;;;;;;3.80;3.40;;;22.70;51.60;;;;;;5006867;28;20404;-90
2022/03/26 09:04:21;;;;;;;4.43;4.00;;;22.70;51.60;;;;;;5007364;28;20193;-89
2022/03/26 09:06:46;;;;;;;6.07;4.47;;;22.70;51.60;;;;;;5005894;28;20252;-90
2022/03/26 09:09:15;;;;;;;4.10;3.70;;;22.70;51.60;;;;;;5005617;28;20208;-89
2022/03/26 09:11:43;;;;;;;4.20;3.80;;;22.70;51.60;;;;;;5006259;28;20176;-90
2022/03/26 09:14:10;;;;;;;4.43;4.03;;;22.70;51.60;;;;;;5021841;28;20487;-89
2022/03/26 09:16:35;;;;;;;4.17;3.77;;;22.70;51.60;;;;;;5006385;28;20780;-88
2022/03/26 09:19:02;;;;;;;4.37;3.97;;;22.70;51.60;;;;;;5004454;28;20488;-89
2022/03/26 09:21:28;;;;;;;4.33;3.93;;;22.70;51.80;;;;;;5022341;28;20184;-89
2022/03/26 09:23:53;;;;;;;5.87;3.67;;;22.70;51.50;;;;;;5022254;28;20424;-89
2022/03/26 09:26:19;;;;;;;5.40;3.90;;;22.70;51.50;;;;;;5006731;28;20181;-89
2022/03/26 09:28:45;;;;;;;4.20;3.70;;;22.70;51.50;;;;;;5006947;28;20177;-88
2022/03/26 09:31:11;;;;;;;4.17;3.77;;;22.70;51.50;;;;;;5005442;28;20212;-89
2022/03/26 09:37:00;;;;;;;4.30;3.90;;;22.70;51.50;;;;;;5007295;28;20460;-88
2022/03/26 09:39:25;;;;;;;3.90;3.60;;;22.70;51.50;;;;;;5006327;28;20412;-88
2022/03/26 09:41:53;;;;;;;4.50;3.90;;;22.60;52.00;;;;;;5004946;28;20807;-89
2022/03/26 09:44:20;;;;;;;4.40;3.73;;;22.70;51.60;;;;;;5004880;28;20555;-88
2022/03/26 09:46:46;;;;;;;7.03;4.37;;;22.70;51.60;;;;;;5005568;28;20442;-88
2022/03/26 09:49:11;;;;;;;4.40;4.00;;;22.70;51.60;;;;;;5006240;28;20432;-88
2022/03/26 09:51:37;;;;;;;4.70;4.30;;;22.70;51.60;;;;;;5005269;28;20195;-88
2022/03/26 09:54:04;;;;;;;4.37;3.97;;;22.70;51.60;;;;;;5021653;28;20207;-88
2022/03/26 09:56:30;;;;;;;6.27;4.20;;;22.70;51.50;;;;;;5004947;28;20487;-89
2022/03/26 09:58:58;;;;;;;4.67;4.03;;;22.70;51.50;;;;;;5005416;28;20455;-88
2022/03/26 10:01:25;;;;;;;4.60;4.13;;;22.70;51.40;;;;;;5005163;28;20423;-88
2022/03/26 10:04:12;;;;;;;5.90;5.00;;;22.70;51.40;;;;;;5005111;28;20416;-88
2022/03/26 10:06:55;;;;;;;5.53;4.33;;;22.70;51.40;;;;;;5005886;28;20416;-88
2022/03/26 10:09:37;;;;;;;4.97;4.50;;;22.70;51.40;;;;;;5005254;28;20430;-88
2022/03/26 10:12:21;;;;;;;5.37;4.87;;;22.70;51.40;;;;;;5005139;28;20432;-88
2022/03/26 10:14:54;;;;;;;5.17;4.67;;;22.80;51.40;;;;;;5005028;28;20468;-88
2022/03/26 10:17:33;;;;;;;4.37;3.97;;;22.70;51.40;;;;;;5005102;28;20423;-87
2022/03/26 10:20:01;;;;;;;4.40;3.87;;;22.80;51.40;;;;;;5005313;28;20476;-88
2022/03/26 10:22:44;;;;;;;4.70;4.30;;;22.80;51.40;;;;;;5006187;28;20412;-88
2022/03/26 10:25:17;;;;;;;5.07;4.33;;;22.80;51.30;;;;;;5006520;28;20404;-88
2022/03/26 10:27:46;;;;;;;5.13;4.60;;;22.80;51.30;;;;;;5005638;28;20454;-88
2022/03/26 10:30:17;;;;;;;6.37;4.53;;;22.80;51.30;;;;;;5006411;28;20424;-88
2022/03/26 10:32:49;;;;;;;4.70;4.30;;;22.80;51.30;;;;;;5005800;28;20419;-89
2022/03/26 10:35:18;;;;;;;5.73;4.37;;;22.80;51.20;;;;;;5007246;28;20466;-88
2022/03/26 10:38:16;;;;;;;4.70;4.30;;;22.80;51.20;;;;;;5005870;28;20420;-88
2022/03/26 10:40:42;;;;;;;5.30;4.50;;;22.90;51.30;;;;;;4996030;28;20416;-88
2022/03/26 10:46:39;;;;;;;4.90;3.60;;;22.90;51.20;;;;;;5006833;28;20601;-90
2022/03/26 10:49:05;;;;;;;5.33;4.83;;;22.80;51.20;;;;;;5005717;28;20426;-90
2022/03/26 10:51:36;;;;;;;4.83;4.13;;;22.80;51.20;;;;;;5007734;28;20475;-91
2022/03/26 10:54:15;;;;;;;5.03;4.53;;;22.90;51.20;;;;;;5006948;28;20185;-90
2022/03/26 10:56:50;;;;;;;5.70;4.60;;;22.90;51.20;;;;;;5022173;28;20972;-90
2022/03/26 10:59:16;;;;;;;5.20;4.50;;;22.90;51.20;;;;;;5007405;28;20392;-90
2022/03/26 11:01:42;;;;;;;5.77;4.80;;;22.90;51.20;;;;;;5009549;28;20415;-89
2022/03/26 11:04:08;;;;;;;4.20;3.80;;;22.90;51.20;;;;;;5010619;28;20462;-90
2022/03/26 11:06:38;;;;;;;4.97;4.47;;;22.90;51.10;;;;;;5025706;28;20173;-90
2022/03/26 11:09:06;;;;;;;4.60;4.20;;;22.90;51.10;;;;;;5010849;28;20185;-90
2022/03/26 11:11:32;;;;;;;5.50;4.40;;;22.90;51.10;;;;;;5009711;28;20474;-89
2022/03/26 11:14:05;;;;;;;4.40;4.00;;;22.90;51.10;;;;;;5010139;28;20451;-90
2022/03/26 11:16:40;;;;;;;6.43;4.23;;;23.00;51.20;;;;;;5010013;28;20389;-90
2022/03/26 11:19:41;;;;;;;5.80;4.30;;;23.00;51.20;;;;;;5010531;28;20461;-90
2022/03/26 11:22:37;;;;;;;4.40;4.00;;;23.00;51.20;;;;;;5009678;28;20395;-89
2022/03/26 11:25:24;;;;;;;4.57;4.17;;;23.00;51.20;;;;;;5009805;28;20404;-90
2022/03/26 11:28:16;;;;;;;3.80;3.50;;;23.00;51.20;;;;;;5008360;28;20408;-90
2022/03/26 11:30:53;;;;;;;4.60;4.00;;;23.00;51.30;;;;;;5023606;28;20416;-90
2022/03/26 11:33:20;;;;;;;4.20;3.80;;;23.00;51.20;;;;;;5010007;28;20396;-90
2022/03/26 11:36:00;;;;;;;5.67;4.40;;;23.00;51.20;;;;;;5009536;28;20459;-90
2022/03/26 11:38:29;;;;;;;5.60;3.87;;;23.00;51.30;;;;;;5007575;28;20447;-90
2022/03/26 11:41:04;;;;;;;5.17;4.77;;;23.00;51.20;;;;;;5008342;28;20412;-91
2022/03/26 11:43:46;;;;;;;4.70;4.17;;;23.00;51.20;;;;;;5009330;28;20423;-90
2022/03/26 11:52:15;;;;;;;5.40;3.90;;;23.00;51.20;;;;;;5009274;28;20383;-90
2022/03/26 11:54:41;;;;;;;4.70;3.70;;;23.10;51.30;;;;;;5009777;28;20456;-91
2022/03/26 11:57:18;;;;;;;4.60;4.10;;;23.10;51.30;;;;;;5008902;28;20408;-90
2022/03/26 11:59:44;;;;;;;4.67;4.20;;;23.10;51.20;;;;;;5008895;28;20402;-91
2022/03/26 12:02:25;;;;;;;4.97;3.60;;;23.10;51.20;;;;;;5008037;28;20419;-90
2022/03/26 12:04:58;;;;;;;3.77;3.47;;;23.10;51.20;;;;;;5007434;28;20448;-91
2022/03/26 12:07:28;;;;;;;4.87;4.40;;;23.20;51.30;;;;;;5007078;28;20427;-91
2022/03/26 12:10:11;;;;;;;4.90;4.20;;;23.20;51.20;;;;;;5007157;28;20424;-91
2022/03/26 12:12:56;;;;;;;4.20;3.80;;;23.20;51.20;;;;;;5006803;28;20495;-91
2022/03/26 12:15:25;;;;;;;4.30;3.90;;;23.20;51.30;;;;;;5006806;28;20470;-90
2022/03/26 12:18:05;;;;;;;5.07;4.47;;;23.20;51.20;;;;;;5008077;28;20417;-90
2022/03/26 12:20:51;;;;;;;4.90;3.80;;;23.20;51.20;;;;;;5008623;28;20724;-91
2022/03/26 12:23:28;;;;;;;4.37;3.97;;;23.20;51.20;;;;;;5007839;28;20448;-91
2022/03/26 12:26:03;;;;;;;3.97;3.63;;;23.20;51.20;;;;;;5006751;28;20487;-91
2022/03/26 12:28:37;;;;;;;4.00;3.60;;;23.20;51.20;;;;;;5006888;28;20439;-90
2022/03/26 12:31:05;;;;;;;3.73;3.43;;;23.20;51.20;;;;;;5007610;28;20408;-91
2022/03/26 12:33:41;;;;;;;6.13;4.10;;;23.20;51.20;;;;;;5007651;28;20459;-91
2022/03/26 12:36:07;;;;;;;4.07;3.50;;;23.20;51.20;;;;;;5008184;28;20430;-91
2022/03/26 12:38:33;;;;;;;3.77;3.40;;;23.20;51.20;;;;;;5006438;28;20420;-91
2022/03/26 12:41:05;;;;;;;4.27;3.87;;;23.20;51.20;;;;;;5007049;28;20416;-90
2022/03/26 12:43:31;;;;;;;4.40;4.00;;;23.30;51.20;;;;;;5006948;28;20432;-91
2022/03/26 12:45:59;;;;;;;4.47;4.07;;;23.20;51.10;;;;;;5023483;28;20420;-91
2022/03/26 12:48:28;;;;;;;5.23;4.03;;;23.30;51.20;;;;;;5007566;28;20455;-91
2022/03/26 12:50:59;;;;;;;6.47;3.50;;;23.30;51.10;;;;;;5009402;28;20407;-91
2022/03/26 12:53:25;;;;;;;3.97;3.57;;;23.20;51.10;;;;;;5006568;28;20584;-91
2022/03/26 12:55:57;;;;;;;4.80;4.13;;;23.30;51.10;;;;;;5007677;28;20829;-92
2022/03/26 13:01:13;;;;;;;4.83;3.73;;;23.30;51.10;;;;;;5007835;28;20391;-91
2022/03/26 13:03:39;;;;;;;4.10;3.53;;;23.30;51.10;;;;;;5006926;28;20980;-92
2022/03/26 13:06:16;;;;;;;6.00;3.70;;;23.30;51.10;;;;;;5007145;28;20424;-91
2022/03/26 13:08:53;;;;;;;4.20;3.90;;;23.30;51.10;;;;;;5006512;28;20914;-91
2022/03/26 13:11:22;;;;;;;4.10;3.70;;;23.30;51.10;;;;;;5006783;28;20412;-91
2022/03/26 13:13:53;;;;;;;3.80;3.30;;;23.30;51.10;;;;;;5006058;28;20475;-90
2022/03/26 13:16:52;;;;;;;4.43;3.70;;;23.30;51.10;;;;;;5006954;28;20412;-92
2022/03/26 13:19:18;;;;;;;4.53;4.13;;;23.30;51.10;;;;;;5007983;28;20399;-90
2022/03/26 13:21:48;;;;;;;4.27;3.87;;;23.30;51.00;;;;;;5006655;28;20444;-91
2022/03/26 13:24:17;;;;;;;4.10;3.70;;;23.30;51.00;;;;;;5006257;28;20500;-90
2022/03/26 13:26:51;;;;;;;3.77;3.47;;;23.30;51.00;;;;;;5007250;28;20518;-91
2022/03/26 13:29:25;;;;;;;4.07;3.77;;;23.30;51.00;;;;;;5006618;28;20467;-91
2022/03/26 13:31:53;;;;;;;5.90;3.73;;;23.30;51.00;;;;;;5006006;28;20431;-91
2022/03/26 13:34:30;;;;;;;4.40;3.60;;;23.30;51.00;;;;;;5005639;28;20550;-91
2022/03/26 13:37:13;;;;;;;4.20;3.80;;;23.20;50.90;;;;;;5007458;28;20408;-90
2022/03/26 13:39:43;;;;;;;3.53;3.23;;;23.20;50.90;;;;;;5005934;28;20412;-90
2022/03/26 13:42:18;;;;;;;5.30;3.57;;;23.20;50.90;;;;;;5007148;28;20424;-91
2022/03/26 13:44:45;;;;;;;4.57;3.50;;;23.20;50.90;;;;;;5007451;28;20435;-90
2022/03/26 13:47:20;;;;;;;3.83;3.40;;;23.20;50.90;;;;;;5005795;28;20440;-91
2022/03/26 13:50:00;;;;;;;5.60;3.73;;;23.20;50.90;;;;;;5006815;28;20410;-91